createdAt,value
2018-12-05T00:01:27.065Z,4.44
2018-12-05T00:03:56.084Z,4.46
2018-12-05T00:06:24.377Z,4.45
2018-12-05T00:08:52.689Z,4.45
2018-12-05T00:11:21.075Z,4.48
2018-12-05T00:13:49.807Z,4.44
2018-12-05T00:16:18.136Z,4.45
2018-12-05T00:18:46.430Z,4.42
2018-12-05T00:21:14.748Z,4.40
2018-12-05T00:23:43.040Z,4.41
2018-12-05T00:26:11.719Z,4.43
2018-12-05T00:28:40.221Z,4.49
2018-12-05T00:31:08.794Z,4.43
2018-12-05T00:33:37.178Z,4.46
2018-12-05T00:36:05.504Z,4.50
2018-12-05T00:38:33.832Z,4.48
2018-12-05T00:41:02.138Z,4.53
2018-12-05T00:43:30.445Z,4.57
2018-12-05T00:45:59.014Z,4.54
2018-12-05T00:48:27.363Z,4.56
2018-12-05T00:50:55.669Z,4.47
2018-12-05T00:53:24.026Z,4.45
2018-12-05T00:55:52.414Z,4.46
2018-12-05T00:58:20.729Z,4.44
2018-12-05T01:00:49.014Z,4.45
2018-12-05T01:03:17.358Z,4.35
2018-12-05T01:05:45.878Z,4.32
2018-12-05T01:08:14.472Z,4.32
2018-12-05T01:10:42.809Z,4.14
2018-12-05T01:13:11.203Z,4.26
2018-12-05T01:15:39.513Z,4.12
2018-12-05T01:18:07.834Z,4.10
2018-12-05T01:20:36.362Z,4.04
2018-12-05T01:23:04.801Z,4.05
2018-12-05T01:25:33.196Z,3.94
2018-12-05T01:28:01.527Z,4.03
2018-12-05T01:30:30.351Z,4.00
2018-12-05T01:32:58.727Z,3.96
2018-12-05T01:35:27.334Z,3.86
2018-12-05T01:37:55.667Z,3.84
2018-12-05T01:40:23.974Z,3.82
2018-12-05T01:42:52.507Z,3.71
2018-12-05T01:45:20.805Z,3.58
2018-12-05T01:47:49.094Z,3.72
2018-12-05T01:50:17.832Z,3.73
2018-12-05T01:52:46.458Z,3.67
2018-12-05T01:55:14.787Z,3.71
2018-12-05T01:57:43.111Z,3.65
2018-12-05T02:00:11.662Z,3.68
2018-12-05T02:02:40.058Z,3.59
2018-12-05T02:05:08.537Z,3.57
2018-12-05T02:07:36.974Z,3.52
2018-12-05T02:10:05.940Z,3.46
2018-12-05T02:12:34.325Z,3.49
2018-12-05T02:15:02.644Z,3.49
2018-12-05T02:17:30.978Z,3.47
2018-12-05T02:19:59.289Z,3.39
2018-12-05T02:22:27.597Z,3.42
2018-12-05T02:24:55.893Z,3.49
2018-12-05T02:27:24.228Z,3.49
2018-12-05T02:29:58.523Z,3.41
2018-12-05T02:32:27.191Z,3.39
2018-12-05T02:34:55.453Z,3.42
2018-12-05T02:37:23.880Z,3.40
2018-12-05T02:39:52.190Z,3.40
2018-12-05T02:42:20.479Z,3.36
2018-12-05T02:44:48.891Z,3.31
2018-12-05T02:47:17.277Z,3.26
2018-12-05T02:49:45.580Z,3.07
2018-12-05T02:52:13.919Z,2.79
2018-12-05T02:54:42.493Z,2.63
2018-12-05T02:57:10.803Z,2.52
2018-12-05T02:59:39.139Z,2.51
2018-12-05T03:02:07.504Z,2.31
2018-12-05T03:04:35.932Z,2.24
2018-12-05T03:07:04.263Z,2.25
2018-12-05T03:09:33.164Z,2.19
2018-12-05T03:12:01.479Z,2.13
2018-12-05T03:14:30.491Z,2.14
2018-12-05T03:16:58.831Z,2.14
2018-12-05T03:19:27.162Z,2.20
2018-12-05T03:21:55.509Z,2.17
2018-12-05T03:24:23.908Z,2.19
2018-12-05T03:26:52.491Z,2.21
2018-12-05T03:29:20.786Z,2.27
2018-12-05T03:31:49.081Z,2.26
2018-12-05T03:34:17.364Z,2.19
2018-12-05T03:36:45.689Z,2.20
2018-12-05T03:39:13.974Z,2.25
2018-12-05T03:41:42.386Z,2.25
2018-12-05T03:44:10.763Z,2.27
2018-12-05T03:46:39.097Z,2.29
2018-12-05T03:49:07.396Z,2.33
2018-12-05T03:51:35.992Z,2.27
2018-12-05T03:54:04.448Z,2.31
2018-12-05T03:56:32.769Z,2.32
2018-12-05T03:59:01.087Z,2.28
2018-12-05T04:01:29.845Z,2.22
2018-12-05T04:03:58.273Z,2.15
2018-12-05T04:06:26.607Z,2.13
2018-12-05T04:08:54.915Z,2.13
2018-12-05T04:11:23.251Z,2.14
2018-12-05T04:13:51.611Z,2.14
2018-12-05T04:16:20.249Z,2.14
2018-12-05T04:18:48.811Z,2.17
2018-12-05T04:21:17.144Z,2.14
2018-12-05T04:23:45.458Z,2.11
2018-12-05T04:26:14.569Z,2.08
2018-12-05T04:28:42.903Z,2.11
2018-12-05T04:31:11.364Z,2.08
2018-12-05T04:33:39.708Z,2.12
2018-12-05T04:36:08.014Z,2.07
2018-12-05T04:38:36.352Z,2.02
2018-12-05T04:41:04.664Z,1.99
2018-12-05T04:43:33.375Z,1.95
2018-12-05T04:46:01.670Z,2.02
2018-12-05T04:48:30.266Z,2.03
2018-12-05T04:50:58.626Z,2.08
2018-12-05T04:53:27.117Z,2.08
2018-12-05T04:55:55.508Z,2.02
2018-12-05T04:58:23.884Z,2.00
2018-12-05T05:00:52.197Z,2.04
2018-12-05T05:03:20.688Z,1.96
2018-12-05T05:05:49.119Z,1.99
2018-12-05T05:08:17.468Z,2.02
2018-12-05T05:10:45.892Z,1.97
2018-12-05T05:13:15.073Z,1.94
2018-12-05T05:15:43.421Z,1.94
2018-12-05T05:18:11.744Z,1.90
2018-12-05T05:20:40.232Z,1.86
2018-12-05T05:23:08.762Z,1.88
2018-12-05T05:25:37.093Z,1.89
2018-12-05T05:28:05.373Z,1.90
2018-12-05T05:30:33.716Z,1.87
2018-12-05T05:33:02.084Z,1.81
2018-12-05T05:35:30.546Z,1.69
2018-12-05T05:37:59.349Z,1.68
2018-12-05T05:40:27.688Z,1.61
2018-12-05T05:42:56.011Z,1.55
2018-12-05T05:45:24.297Z,1.51
2018-12-05T05:47:52.621Z,1.47
2018-12-05T05:50:20.988Z,1.50
2018-12-05T05:52:49.336Z,1.44
2018-12-05T05:55:17.616Z,1.43
2018-12-05T05:57:46.109Z,1.31
2018-12-05T06:00:14.577Z,1.26
2018-12-05T06:02:43.054Z,1.28
2018-12-05T06:05:11.568Z,1.16
2018-12-05T06:07:40.194Z,1.28
2018-12-05T06:10:08.604Z,1.25
2018-12-05T06:12:36.972Z,1.22
2018-12-05T06:15:07.432Z,1.19
2018-12-05T06:17:35.733Z,1.07
2018-12-05T06:20:04.888Z,1.06
2018-12-05T06:22:33.218Z,1.11
2018-12-05T06:25:01.799Z,1.17
2018-12-05T06:27:30.122Z,1.16
2018-12-05T06:29:58.526Z,1.16
2018-12-05T06:32:26.841Z,1.05
2018-12-05T06:34:55.195Z,1.13
2018-12-05T06:37:23.503Z,1.08
2018-12-05T06:39:51.984Z,1.10
2018-12-05T06:42:20.355Z,1.06
2018-12-05T06:44:48.739Z,1.07
2018-12-05T06:47:17.062Z,1.10
2018-12-05T06:49:45.428Z,1.13
2018-12-05T06:52:13.778Z,1.01
2018-12-05T06:54:42.461Z,1.13
2018-12-05T06:57:10.874Z,1.13
2018-12-05T06:59:39.266Z,1.09
2018-12-05T07:02:07.704Z,1.13
2018-12-05T07:04:36.016Z,1.10
2018-12-05T07:07:04.966Z,1.10
2018-12-05T07:09:33.302Z,1.06
2018-12-05T07:12:01.648Z,1.08
2018-12-05T07:14:29.932Z,1.07
2018-12-05T07:16:58.249Z,1.05
2018-12-05T07:19:26.648Z,1.06
2018-12-05T07:21:55.026Z,1.09
2018-12-05T07:24:23.323Z,1.12
2018-12-05T07:26:51.836Z,1.11
2018-12-05T07:29:20.139Z,1.28
2018-12-05T07:31:48.687Z,1.23
2018-12-05T07:34:17.078Z,1.35
2018-12-05T07:36:45.603Z,1.27
2018-12-05T07:39:14.041Z,1.41
2018-12-05T07:41:42.343Z,1.41
2018-12-05T07:44:10.665Z,1.47
2018-12-05T07:46:39.046Z,1.51
2018-12-05T07:49:07.376Z,1.44
2018-12-05T07:51:35.796Z,1.41
2018-12-05T07:54:04.543Z,1.42
2018-12-05T07:56:32.925Z,1.43
2018-12-05T07:59:01.538Z,1.51
2018-12-05T08:01:29.863Z,1.49
2018-12-05T08:03:58.436Z,1.54
2018-12-05T08:06:26.919Z,1.71
2018-12-05T08:08:55.337Z,1.72
2018-12-05T08:11:24.238Z,1.81
2018-12-05T08:13:52.598Z,1.79
2018-12-05T08:16:20.917Z,1.81
2018-12-05T08:18:49.576Z,1.84
2018-12-05T08:21:18.141Z,1.86
2018-12-05T08:23:46.676Z,1.92
2018-12-05T08:26:14.971Z,2.05
2018-12-05T08:28:43.266Z,1.98
2018-12-05T08:31:11.596Z,2.21
2018-12-05T08:33:40.029Z,2.22
2018-12-05T08:36:08.479Z,2.48
2018-12-05T08:38:36.904Z,2.31
2018-12-05T08:41:05.205Z,2.23
2018-12-05T08:43:33.511Z,2.31
2018-12-05T08:46:01.830Z,2.31
2018-12-05T08:48:30.158Z,2.44
2018-12-05T08:50:58.570Z,2.30
2018-12-05T08:53:26.965Z,2.47
2018-12-05T08:55:55.480Z,2.73
2018-12-05T08:58:23.905Z,2.78
2018-12-05T09:00:52.403Z,2.71
2018-12-05T09:03:21.510Z,2.91
2018-12-05T09:05:50.830Z,3.07
2018-12-05T09:08:19.119Z,3.19
2018-12-05T09:10:47.650Z,3.26
2018-12-05T09:13:16.091Z,3.32
2018-12-05T09:15:44.466Z,3.40
2018-12-05T09:18:12.774Z,3.39
2018-12-05T09:20:41.118Z,3.34
2018-12-05T09:23:09.430Z,3.42
2018-12-05T09:25:37.733Z,3.31
2018-12-05T09:28:06.021Z,3.51
2018-12-05T09:30:34.471Z,3.55
2018-12-05T09:33:02.871Z,3.80
2018-12-05T09:35:31.440Z,3.87
2018-12-05T09:37:59.826Z,4.11
2018-12-05T09:40:35.932Z,3.95
2018-12-05T09:43:04.425Z,3.99
2018-12-05T09:45:32.776Z,3.99
2018-12-05T09:48:01.291Z,4.15
2018-12-05T09:50:29.640Z,4.00
2018-12-05T09:52:57.925Z,3.94
2018-12-05T09:55:26.379Z,4.13
2018-12-05T09:57:54.705Z,4.06
2018-12-05T10:00:23.312Z,4.21
2018-12-05T10:02:51.915Z,4.14
2018-12-05T10:05:20.201Z,4.27
2018-12-05T10:07:48.588Z,4.43
2018-12-05T10:10:16.900Z,4.59
2018-12-05T10:12:45.222Z,4.39
2018-12-05T10:15:13.739Z,4.44
2018-12-05T10:17:42.861Z,4.61
2018-12-05T10:20:11.461Z,4.45
2018-12-05T10:22:39.798Z,4.65
2018-12-05T10:25:08.336Z,4.78
2018-12-05T10:27:36.678Z,4.60
2018-12-05T10:30:07.654Z,4.53
2018-12-05T10:32:35.988Z,4.72
2018-12-05T10:35:05.132Z,4.87
2018-12-05T10:37:33.548Z,4.83
2018-12-05T10:40:01.980Z,4.89
2018-12-05T10:42:30.375Z,4.94
2018-12-05T10:44:58.872Z,5.00
2018-12-05T10:47:27.272Z,5.13
2018-12-05T10:49:55.604Z,4.94
2018-12-05T10:52:24.007Z,4.97
2018-12-05T10:54:52.449Z,5.13
2018-12-05T10:57:21.086Z,5.34
2018-12-05T10:59:49.397Z,5.60
2018-12-05T11:02:23.390Z,5.87
2018-12-05T11:04:57.268Z,5.83
2018-12-05T11:07:31.217Z,5.75
2018-12-05T11:16:14.567Z,5.58
2018-12-05T11:18:48.448Z,5.56
2018-12-05T11:21:22.969Z,5.73
2018-12-05T11:23:55.269Z,5.89
2018-12-05T11:26:25.400Z,5.73
2018-12-05T11:28:53.721Z,5.71
2018-12-05T11:31:22.348Z,5.73
2018-12-05T11:33:50.664Z,5.76
2018-12-05T11:36:19.099Z,5.77
2018-12-05T11:38:47.448Z,5.83
2018-12-05T11:41:15.823Z,5.78
2018-12-05T11:43:44.203Z,5.83
2018-12-05T11:46:12.502Z,6.04
2018-12-05T11:48:41.149Z,5.94
2018-12-05T11:51:09.534Z,6.15
2018-12-05T11:53:37.850Z,6.04
2018-12-05T11:56:06.696Z,6.18
2018-12-05T11:58:35.106Z,6.39
2018-12-05T12:01:03.437Z,6.44
2018-12-05T12:03:31.738Z,6.61
2018-12-05T12:06:00.828Z,6.63
2018-12-05T12:08:29.140Z,6.64
2018-12-05T12:10:57.459Z,6.78
2018-12-05T12:13:25.741Z,6.85
2018-12-05T12:15:54.190Z,6.58
2018-12-05T12:18:22.777Z,6.58
2018-12-05T12:20:51.358Z,6.87
2018-12-05T12:23:19.633Z,6.84
2018-12-05T12:25:47.963Z,6.79
2018-12-05T12:28:16.319Z,6.82
2018-12-05T12:30:45.176Z,6.70
2018-12-05T12:33:13.683Z,6.67
2018-12-05T12:35:42.047Z,6.62
2018-12-05T12:38:11.057Z,6.69
2018-12-05T12:40:39.364Z,6.84
2018-12-05T12:43:07.959Z,6.66
2018-12-05T12:45:36.259Z,6.79
2018-12-05T12:48:04.737Z,6.72
2018-12-05T12:50:33.078Z,6.55
2018-12-05T12:53:01.369Z,6.54
2018-12-05T12:55:29.929Z,6.77
2018-12-05T12:57:58.595Z,6.67
2018-12-05T13:00:27.126Z,6.62
2018-12-05T13:02:55.490Z,6.64
2018-12-05T13:05:23.900Z,6.58
2018-12-05T13:07:52.358Z,6.70
2018-12-05T13:10:20.707Z,6.66
2018-12-05T13:12:51.048Z,6.57
2018-12-05T13:15:19.463Z,6.57
2018-12-05T13:17:47.830Z,6.53
2018-12-05T13:20:16.124Z,6.58
2018-12-05T13:22:44.480Z,6.55
2018-12-05T13:25:13.288Z,6.61
2018-12-05T13:27:41.733Z,6.52
2018-12-05T13:30:10.195Z,6.29
2018-12-05T13:32:38.678Z,6.42
2018-12-05T13:35:07.265Z,6.30
2018-12-05T13:37:35.866Z,6.50
2018-12-05T13:40:07.246Z,6.35
2018-12-05T13:42:35.662Z,6.39
2018-12-05T13:45:05.230Z,6.42
2018-12-05T13:47:33.571Z,6.34
2018-12-05T13:50:01.872Z,6.22
2018-12-05T13:52:30.168Z,6.25
2018-12-05T13:54:58.477Z,6.27
2018-12-05T13:57:26.776Z,6.19
2018-12-05T13:59:55.813Z,6.31
2018-12-05T14:02:24.118Z,6.08
2018-12-05T14:04:52.532Z,5.92
2018-12-05T14:07:20.827Z,6.13
2018-12-05T14:09:49.142Z,6.14
2018-12-05T14:12:22.910Z,6.12
2018-12-05T14:14:51.302Z,5.91
2018-12-05T14:17:19.607Z,6.06
2018-12-05T14:19:48.097Z,6.03
2018-12-05T14:22:16.896Z,5.90
2018-12-05T14:24:45.181Z,5.85
2018-12-05T14:27:13.588Z,5.94
2018-12-05T14:29:41.991Z,6.00
2018-12-05T14:32:10.327Z,5.87
2018-12-05T14:34:38.927Z,5.90
2018-12-05T14:37:07.237Z,5.91
2018-12-05T14:39:35.691Z,5.92
2018-12-05T14:42:04.032Z,5.85
2018-12-05T14:44:32.411Z,5.94
2018-12-05T14:47:00.758Z,5.92
2018-12-05T14:49:29.234Z,5.92
2018-12-05T14:51:57.593Z,5.87
2018-12-05T14:54:25.987Z,5.86
2018-12-05T14:56:54.308Z,5.93
2018-12-05T14:59:22.692Z,5.93
2018-12-05T15:01:51.602Z,5.96
2018-12-05T15:04:20.353Z,5.86
2018-12-05T15:06:49.114Z,5.91
2018-12-05T15:09:17.415Z,5.72
2018-12-05T15:11:45.760Z,5.74
2018-12-05T15:14:14.839Z,5.76
2018-12-05T15:16:43.213Z,5.85
2018-12-05T15:19:11.544Z,5.83
2018-12-05T15:21:39.861Z,5.90
2018-12-05T15:24:08.784Z,5.81
2018-12-05T15:26:37.079Z,5.85
2018-12-05T15:29:05.447Z,5.90
2018-12-05T15:31:33.738Z,5.84
2018-12-05T15:34:02.080Z,5.87
2018-12-05T15:36:30.473Z,5.90
2018-12-05T15:38:58.946Z,5.91
2018-12-05T15:41:27.429Z,5.92
2018-12-05T15:43:55.811Z,5.88
2018-12-05T15:46:24.148Z,5.81
2018-12-05T15:48:52.449Z,5.93
2018-12-05T15:51:20.799Z,5.91
2018-12-05T15:53:49.362Z,5.87
2018-12-05T15:56:17.701Z,5.91
2018-12-05T15:58:46.025Z,6.04
2018-12-05T16:01:14.348Z,6.07
2018-12-05T16:03:43.327Z,5.88
2018-12-05T16:06:12.259Z,5.98
2018-12-05T16:08:40.568Z,5.88
2018-12-05T16:11:09.018Z,6.00
2018-12-05T16:13:37.393Z,5.93
2018-12-05T16:16:05.812Z,5.84
2018-12-05T16:18:34.217Z,5.93
2018-12-05T16:21:02.552Z,5.94
2018-12-05T16:23:30.847Z,5.95
2018-12-05T16:25:59.987Z,5.80
2018-12-05T16:28:28.323Z,5.88
2018-12-05T16:30:56.675Z,5.95
2018-12-05T16:33:25.255Z,6.06
2018-12-05T16:35:53.719Z,6.02
2018-12-05T16:38:21.992Z,5.90
2018-12-05T16:40:50.429Z,5.89
2018-12-05T16:43:18.860Z,6.05
2018-12-05T16:45:47.238Z,5.99
2018-12-05T16:48:15.594Z,6.07
2018-12-05T16:50:44.112Z,6.09
2018-12-05T16:53:12.522Z,6.10
2018-12-05T16:55:40.887Z,6.11
2018-12-05T16:58:09.189Z,6.02
2018-12-05T17:00:38.199Z,6.12
2018-12-05T17:03:06.544Z,5.95
2018-12-05T17:05:34.858Z,6.07
2018-12-05T17:08:03.197Z,6.12
2018-12-05T17:10:31.728Z,6.21
2018-12-05T17:13:00.078Z,6.03
2018-12-05T17:15:28.738Z,6.10
2018-12-05T17:17:57.172Z,6.25
2018-12-05T17:20:25.670Z,6.08
2018-12-05T17:22:53.984Z,6.19
2018-12-05T17:25:22.498Z,6.04
2018-12-05T17:27:51.049Z,6.25
2018-12-05T17:30:19.403Z,6.17
2018-12-05T17:32:47.682Z,6.00
2018-12-05T17:35:16.006Z,6.34
2018-12-05T17:37:44.331Z,6.15
2018-12-05T17:40:12.843Z,6.25
2018-12-05T17:42:41.206Z,6.07
2018-12-05T17:45:09.694Z,6.27
2018-12-05T17:47:37.989Z,6.28
2018-12-05T17:50:06.434Z,6.12
2018-12-05T17:52:34.751Z,6.32
2018-12-05T17:55:03.278Z,6.13
2018-12-05T17:57:31.906Z,6.19
2018-12-05T18:00:00.269Z,6.28
2018-12-05T18:02:29.283Z,6.28
2018-12-05T18:04:57.805Z,6.32
2018-12-05T18:07:26.377Z,6.40
2018-12-05T18:09:54.910Z,6.28
2018-12-05T18:12:23.235Z,6.45
2018-12-05T18:14:51.565Z,6.30
2018-12-05T18:17:20.008Z,6.41
2018-12-05T18:19:49.055Z,6.31
2018-12-05T18:22:17.339Z,6.37
2018-12-05T18:24:45.699Z,6.23
2018-12-05T18:27:14.156Z,6.23
2018-12-05T18:29:42.676Z,6.18
2018-12-05T18:32:11.021Z,6.36
2018-12-05T18:34:39.371Z,6.25
2018-12-05T18:37:07.775Z,6.36
2018-12-05T18:39:36.359Z,6.35
2018-12-05T18:42:04.963Z,6.24
2018-12-05T18:44:33.457Z,6.29
2018-12-05T18:47:01.797Z,6.23
2018-12-05T18:49:30.103Z,6.23
2018-12-05T18:51:58.410Z,6.32
2018-12-05T18:54:26.664Z,6.33
2018-12-05T18:56:55.021Z,6.27
2018-12-05T18:59:23.308Z,6.15
2018-12-05T19:01:51.822Z,6.24
2018-12-05T19:04:20.126Z,6.20
2018-12-05T19:06:48.493Z,6.23
2018-12-05T19:09:16.889Z,6.12
2018-12-05T19:11:45.865Z,6.14
2018-12-05T19:14:19.924Z,6.19
2018-12-05T19:16:48.251Z,6.25
2018-12-05T19:19:16.613Z,6.28
2018-12-05T19:21:44.979Z,6.24
2018-12-05T19:24:13.261Z,6.21
2018-12-05T19:26:41.678Z,6.15
2018-12-05T19:29:10.018Z,6.24
2018-12-05T19:31:38.575Z,6.16
2018-12-05T19:34:06.978Z,6.06
2018-12-05T19:36:35.359Z,6.16
2018-12-05T19:41:50.192Z,6.14
2018-12-05T19:44:18.505Z,6.13
2018-12-05T19:46:46.856Z,6.15
2018-12-05T19:49:15.435Z,6.18
2018-12-05T19:51:43.737Z,6.17
2018-12-05T19:54:12.228Z,6.06
2018-12-05T19:56:40.686Z,6.11
2018-12-05T19:59:08.981Z,6.05
2018-12-05T20:01:37.369Z,6.15
2018-12-05T20:04:05.923Z,6.23
2018-12-05T20:06:34.376Z,6.33
2018-12-05T20:09:02.720Z,6.20
2018-12-05T20:11:31.055Z,6.25
2018-12-05T20:13:59.383Z,6.31
2018-12-05T20:16:27.714Z,6.20
2018-12-05T20:18:56.016Z,6.12
2018-12-05T20:21:24.403Z,6.20
2018-12-05T20:23:53.465Z,6.23
2018-12-05T20:26:21.846Z,6.24
2018-12-05T20:28:50.809Z,6.32
2018-12-05T20:31:19.174Z,6.15
2018-12-05T20:33:47.825Z,6.36
2018-12-05T20:36:16.325Z,6.33
2018-12-05T20:38:44.710Z,6.34
2018-12-05T20:41:13.085Z,6.26
2018-12-05T20:43:41.870Z,6.41
2018-12-05T20:46:10.285Z,6.39
2018-12-05T20:48:38.659Z,6.38
2018-12-05T20:51:07.062Z,6.44
2018-12-05T20:53:36.115Z,6.37
2018-12-05T20:56:04.611Z,6.45
2018-12-05T20:58:32.975Z,6.42
2018-12-05T21:01:01.745Z,6.49
2018-12-05T21:03:30.071Z,6.45
2018-12-05T21:05:58.405Z,6.39
2018-12-05T21:08:26.750Z,6.45
2018-12-05T21:10:55.089Z,6.44
2018-12-05T21:13:23.543Z,6.55
2018-12-05T21:15:51.859Z,6.60
2018-12-05T21:18:20.319Z,6.60
2018-12-05T21:20:48.658Z,6.71
2018-12-05T21:23:17.101Z,6.57
2018-12-05T21:25:45.475Z,6.70
2018-12-05T21:28:13.844Z,6.75
2018-12-05T21:30:42.421Z,6.82
2018-12-05T21:33:10.890Z,6.78
2018-12-05T21:35:39.338Z,6.85
2018-12-05T21:38:08.379Z,6.92
2018-12-05T21:40:36.809Z,6.82
2018-12-05T21:43:05.186Z,6.88
2018-12-05T21:45:33.676Z,6.82
2018-12-05T21:48:02.293Z,6.86
2018-12-05T21:50:30.636Z,6.81
2018-12-05T21:52:59.187Z,6.85
2018-12-05T21:55:27.509Z,6.93
2018-12-05T21:57:57.658Z,6.89
2018-12-05T22:00:26.374Z,6.93
2018-12-05T22:02:54.888Z,6.91
2018-12-05T22:05:23.345Z,6.90
2018-12-05T22:07:51.694Z,6.83
2018-12-05T22:10:20.009Z,7.06
2018-12-05T22:12:48.446Z,6.99
2018-12-05T22:15:16.757Z,6.93
2018-12-05T22:17:45.196Z,6.88
2018-12-05T22:20:13.628Z,7.07
2018-12-05T22:22:41.941Z,6.97
2018-12-05T22:25:10.284Z,7.05
2018-12-05T22:27:38.715Z,7.00
2018-12-05T22:30:07.967Z,7.06
2018-12-05T22:32:36.317Z,7.09
2018-12-05T22:35:05.149Z,7.13
2018-12-05T22:37:33.527Z,7.17
2018-12-05T22:40:01.844Z,7.01
2018-12-05T22:42:30.220Z,6.92
2018-12-05T22:44:58.953Z,6.99
2018-12-05T22:47:27.296Z,7.05
2018-12-05T22:49:55.596Z,7.16
2018-12-05T22:52:24.063Z,7.07
2018-12-05T22:54:52.551Z,6.95
2018-12-05T22:57:21.038Z,6.92
2018-12-05T22:59:49.584Z,7.10
2018-12-05T23:02:18.277Z,7.08
2018-12-05T23:04:46.650Z,6.93
2018-12-05T23:07:15.081Z,6.92
2018-12-05T23:09:43.371Z,7.14
2018-12-05T23:12:11.700Z,7.16
2018-12-05T23:14:40.796Z,7.28
2018-12-05T23:17:09.204Z,7.14
2018-12-05T23:19:37.597Z,7.37
2018-12-05T23:22:06.177Z,7.30
2018-12-05T23:24:34.638Z,7.19
2018-12-05T23:27:02.946Z,7.06
2018-12-05T23:29:31.620Z,7.23
2018-12-05T23:32:00.727Z,7.28
2018-12-05T23:34:29.088Z,7.16
2018-12-05T23:36:58.077Z,7.27
2018-12-05T23:39:26.429Z,7.32
2018-12-05T23:41:55.030Z,7.20
2018-12-05T23:44:23.614Z,7.27
2018-12-05T23:46:51.918Z,7.09
2018-12-05T23:49:20.234Z,7.14
2018-12-05T23:51:48.607Z,7.14
2018-12-05T23:56:51.395Z,7.14
2018-12-05T23:59:19.838Z,7.08
